createdAt,value
2022-10-31T00:04:43.872Z,100741.22
2022-10-31T00:09:47.825Z,100734.13
2022-10-31T00:14:50.421Z,100735.38
2022-10-31T00:19:53.084Z,100748.34
2022-10-31T00:24:57.040Z,100742.97
2022-10-31T00:29:59.647Z,100735.28
2022-10-31T00:35:02.335Z,100734.50
2022-10-31T00:40:07.700Z,100739.31
2022-10-31T00:45:11.217Z,100744.69
2022-10-31T00:50:13.890Z,100743.34
2022-10-31T00:55:17.895Z,100759.03
2022-10-31T01:00:20.927Z,100753.03
2022-10-31T01:05:24.325Z,100755.97
2022-10-31T01:10:28.364Z,100768.84
2022-10-31T01:15:31.140Z,100762.78
2022-10-31T01:20:34.975Z,100759.50
2022-10-31T01:25:39.154Z,100763.03
2022-10-31T01:30:41.778Z,100760.84
2022-10-31T01:35:44.360Z,100760.72
2022-10-31T01:40:48.311Z,100768.19
2022-10-31T01:45:53.471Z,100761.22
2022-10-31T01:50:56.152Z,100762.31
2022-10-31T01:56:00.527Z,100769.53
2022-10-31T02:01:06.719Z,100771.59
2022-10-31T02:06:15.047Z,100774.53
2022-10-31T02:11:18.984Z,100776.50
2022-10-31T02:16:21.748Z,100774.88
2022-10-31T02:21:27.000Z,100778.69
2022-10-31T02:26:53.212Z,100775.25
2022-10-31T02:31:59.704Z,100783.59
2022-10-31T02:37:06.085Z,100779.28
2022-10-31T02:42:10.043Z,100788.22
2022-10-31T02:47:16.194Z,100787.34
2022-10-31T02:52:20.215Z,100788.47
2022-10-31T02:57:24.807Z,100792.25
2022-10-31T03:02:35.472Z,100794.09
2022-10-31T03:07:42.140Z,100804.97
2022-10-31T03:12:49.591Z,100803.59
2022-10-31T03:17:58.173Z,100811.69
2022-10-31T03:23:01.045Z,100810.31
2022-10-31T03:28:04.511Z,100812.25
2022-10-31T03:33:12.555Z,100814.34
2022-10-31T03:38:15.681Z,100827.28
2022-10-31T03:43:23.986Z,100817.38
2022-10-31T03:48:28.013Z,100825.81
2022-10-31T03:53:33.068Z,100824.09
2022-10-31T03:58:40.209Z,100833.22
2022-10-31T04:03:44.446Z,100831.59
2022-10-31T04:08:51.177Z,100830.25
2022-10-31T04:13:54.887Z,100826.72
2022-10-31T04:19:00.295Z,100836.59
2022-10-31T04:24:02.956Z,100833.28
2022-10-31T04:29:06.926Z,100837.19
2022-10-31T04:34:11.018Z,100837.31
2022-10-31T04:39:13.686Z,100843.00
2022-10-31T04:44:23.205Z,100841.28
2022-10-31T04:49:29.829Z,100841.53
2022-10-31T04:54:32.513Z,100852.38
2022-10-31T04:59:53.756Z,100857.00
2022-10-31T05:04:58.059Z,100860.78
2022-10-31T05:10:00.718Z,100863.59
2022-10-31T05:15:03.377Z,100862.88
2022-10-31T05:20:28.304Z,100869.31
2022-10-31T05:26:03.400Z,100864.03
2022-10-31T05:31:06.300Z,100865.00
2022-10-31T05:36:10.630Z,100870.41
2022-10-31T05:41:18.755Z,100866.09
2022-10-31T05:46:23.597Z,100870.63
2022-10-31T05:51:59.953Z,100874.28
2022-10-31T05:57:11.659Z,100884.28
2022-10-31T06:02:14.388Z,100887.84
2022-10-31T06:07:36.914Z,100884.06
2022-10-31T06:12:41.587Z,100877.94
2022-10-31T06:18:00.373Z,100871.38
2022-10-31T06:23:05.721Z,100890.31
2022-10-31T06:28:09.788Z,100897.50
2022-10-31T06:33:22.958Z,100897.38
2022-10-31T06:38:33.662Z,100901.06
2022-10-31T06:43:49.266Z,100905.75
2022-10-31T06:49:24.125Z,100904.59
2022-10-31T06:54:30.415Z,100914.59
2022-10-31T06:59:34.512Z,100919.22
2022-10-31T07:05:01.284Z,100927.28
2022-10-31T07:10:04.535Z,100930.94
2022-10-31T07:15:24.715Z,100940.94
2022-10-31T07:20:29.220Z,100936.41
2022-10-31T07:25:32.293Z,100947.19
2022-10-31T07:30:43.742Z,100946.09
2022-10-31T07:35:46.853Z,100946.19
2022-10-31T07:40:54.953Z,100945.34
2022-10-31T07:46:00.465Z,100945.34
2022-10-31T07:51:32.195Z,100945.47
2022-10-31T07:57:09.716Z,100948.69
2022-10-31T08:02:15.321Z,100944.91
2022-10-31T08:07:38.160Z,100948.47
2022-10-31T08:12:43.430Z,100939.66
2022-10-31T08:17:49.845Z,100947.72
2022-10-31T08:22:57.657Z,100941.81
2022-10-31T08:28:00.819Z,100942.19
2022-10-31T08:33:05.849Z,100946.19
2022-10-31T08:38:31.738Z,100944.97
2022-10-31T08:43:34.461Z,100952.53
2022-10-31T08:48:38.515Z,100951.59
2022-10-31T08:53:41.385Z,100942.97
2022-10-31T08:59:07.038Z,100936.66
2022-10-31T09:04:24.287Z,100935.03
2022-10-31T09:09:26.971Z,100936.34
2022-10-31T09:14:29.691Z,100937.94
2022-10-31T09:19:52.375Z,100933.88
2022-10-31T09:24:55.139Z,100936.13
2022-10-31T09:29:58.339Z,100924.41
2022-10-31T09:35:02.395Z,100930.44
2022-10-31T09:40:06.023Z,100926.69
2022-10-31T09:45:17.715Z,100928.31
2022-10-31T09:50:23.732Z,100930.66
2022-10-31T09:55:29.742Z,100924.97
2022-10-31T10:00:34.207Z,100920.44
2022-10-31T10:05:40.990Z,100923.75
2022-10-31T10:10:51.696Z,100924.38
2022-10-31T10:16:14.495Z,100924.06
2022-10-31T10:21:25.022Z,100914.94
2022-10-31T10:31:41.607Z,100919.88
2022-10-31T10:36:46.720Z,100906.19
2022-10-31T10:42:04.278Z,100892.44
2022-10-31T10:47:24.789Z,100885.97
2022-10-31T10:52:50.529Z,100880.34
2022-10-31T10:57:57.805Z,100880.88
2022-10-31T11:03:01.098Z,100876.13
2022-10-31T11:08:05.944Z,100875.50
2022-10-31T11:13:21.666Z,100862.22
2022-10-31T11:23:35.000Z,100857.06
2022-10-31T11:28:37.801Z,100852.78
2022-10-31T11:33:42.597Z,100857.00
2022-10-31T11:38:46.717Z,100853.78
2022-10-31T11:43:51.489Z,100854.63
2022-10-31T11:48:55.456Z,100846.47
2022-10-31T11:54:02.775Z,100832.41
2022-10-31T11:59:07.111Z,100832.41
2022-10-31T12:04:12.430Z,100827.75
2022-10-31T12:09:21.338Z,100823.53
2022-10-31T12:14:30.352Z,100822.13
2022-10-31T12:19:38.160Z,100810.84
2022-10-31T12:24:53.149Z,100802.34
2022-10-31T12:30:05.201Z,100803.38
2022-10-31T12:35:21.999Z,100795.47
2022-10-31T12:40:34.026Z,100786.81
2022-10-31T12:45:42.499Z,100779.72
2022-10-31T12:50:52.803Z,100773.78
2022-10-31T12:56:09.798Z,100775.13
2022-10-31T13:01:14.488Z,100755.88
2022-10-31T13:06:20.444Z,100755.16
2022-10-31T13:11:26.985Z,100754.19
2022-10-31T13:16:32.842Z,100751.63
2022-10-31T13:21:38.401Z,100739.56
2022-10-31T13:26:44.136Z,100745.06
2022-10-31T13:31:47.062Z,100736.59
2022-10-31T13:36:54.081Z,100740.75
2022-10-31T13:42:01.804Z,100730.88
2022-10-31T13:47:04.680Z,100731.47
2022-10-31T13:52:14.344Z,100725.97
2022-10-31T13:57:22.129Z,100718.75
2022-10-31T14:02:28.563Z,100710.53
2022-10-31T14:07:31.475Z,100705.91
2022-10-31T14:12:36.511Z,100704.09
2022-10-31T14:17:41.742Z,100697.31
2022-10-31T14:22:44.480Z,100694.50
2022-10-31T14:27:48.936Z,100696.22
2022-10-31T14:32:53.683Z,100688.91
2022-10-31T14:38:35.116Z,100679.72
2022-10-31T14:43:49.206Z,100666.25
2022-10-31T14:49:16.031Z,100661.44
2022-10-31T14:54:21.678Z,100661.25
2022-10-31T14:59:26.461Z,100653.03
2022-10-31T15:04:30.236Z,100653.91
2022-10-31T15:09:35.088Z,100645.81
2022-10-31T15:14:39.131Z,100642.00
2022-10-31T15:19:42.155Z,100638.47
2022-10-31T15:24:45.021Z,100639.91
2022-10-31T15:29:53.319Z,100639.91
2022-10-31T15:34:56.918Z,100635.41
2022-10-31T15:40:08.579Z,100623.66
2022-10-31T15:45:20.797Z,100625.50
2022-10-31T15:50:32.919Z,100623.75
2022-10-31T15:55:40.151Z,100616.28
2022-10-31T16:00:44.793Z,100618.72
2022-10-31T16:05:48.498Z,100622.13
2022-10-31T16:10:51.517Z,100620.06
2022-10-31T16:16:21.282Z,100610.00
2022-10-31T16:21:26.504Z,100608.31
2022-10-31T16:26:29.389Z,100604.03
2022-10-31T16:31:38.897Z,100594.44
2022-10-31T16:36:41.698Z,100594.34
2022-10-31T16:41:44.948Z,100593.94
2022-10-31T16:46:49.154Z,100588.69
2022-10-31T16:51:51.801Z,100591.09
2022-10-31T16:56:54.515Z,100587.41
2022-10-31T17:01:58.687Z,100591.72
2022-10-31T17:07:01.440Z,100589.03
2022-10-31T17:12:04.223Z,100588.03
2022-10-31T17:17:09.314Z,100589.75
2022-10-31T17:22:12.632Z,100589.63
2022-10-31T17:27:15.489Z,100591.31
2022-10-31T17:32:19.621Z,100584.50
2022-10-31T17:37:22.290Z,100581.53
2022-10-31T17:42:25.052Z,100582.97
2022-10-31T17:47:29.277Z,100582.81
2022-10-31T17:52:31.927Z,100576.59
2022-10-31T17:57:35.714Z,100570.97
2022-10-31T18:02:39.935Z,100568.25
2022-10-31T18:07:43.026Z,100558.06
2022-10-31T18:12:45.930Z,100556.22
2022-10-31T18:17:50.077Z,100546.44
2022-10-31T18:22:52.741Z,100541.19
2022-10-31T18:27:55.559Z,100535.53
2022-10-31T18:32:59.666Z,100539.19
2022-10-31T18:38:03.387Z,100533.53
2022-10-31T18:43:07.123Z,100533.09
2022-10-31T18:48:13.583Z,100525.00
2022-10-31T18:53:16.316Z,100511.13
2022-10-31T18:58:19.175Z,100506.47
2022-10-31T19:03:26.197Z,100503.91
2022-10-31T19:08:29.171Z,100491.69
2022-10-31T19:13:33.290Z,100493.72
2022-10-31T19:18:37.509Z,100482.09
2022-10-31T19:23:40.453Z,100497.28
2022-10-31T19:28:43.491Z,100481.94
2022-10-31T19:33:47.619Z,100476.44
2022-10-31T19:38:51.637Z,100474.72
2022-10-31T19:43:54.470Z,100473.59
2022-10-31T19:48:58.734Z,100459.25
2022-10-31T19:54:01.609Z,100447.06
2022-10-31T19:59:04.682Z,100440.22
2022-10-31T20:04:08.716Z,100418.13
2022-10-31T20:09:13.574Z,100417.84
2022-10-31T20:14:17.505Z,100437.00
2022-10-31T20:19:22.117Z,100432.31
2022-10-31T20:24:25.078Z,100437.44
2022-10-31T20:29:27.818Z,100438.56
2022-10-31T20:34:31.955Z,100427.91
2022-10-31T20:39:36.595Z,100422.38
2022-10-31T20:44:39.382Z,100429.47
2022-10-31T20:49:43.399Z,100429.38
2022-10-31T20:54:46.227Z,100428.63
2022-10-31T20:59:49.960Z,100431.31
2022-10-31T21:04:54.074Z,100432.91
2022-10-31T21:09:56.806Z,100415.88
2022-10-31T21:14:59.770Z,100411.88
2022-10-31T21:20:04.527Z,100402.22
2022-10-31T21:25:07.802Z,100387.34
2022-10-31T21:30:11.036Z,100381.09
2022-10-31T21:35:15.137Z,100373.69
2022-10-31T21:40:17.904Z,100358.97
2022-10-31T21:45:21.277Z,100354.16
2022-10-31T21:50:25.272Z,100354.28
2022-10-31T21:55:27.985Z,100345.22
2022-10-31T22:00:30.725Z,100342.53
2022-10-31T22:05:36.009Z,100339.13
2022-10-31T22:10:38.712Z,100326.34
2022-10-31T22:15:41.417Z,100327.34
2022-10-31T22:20:45.567Z,100315.25
2022-10-31T22:25:48.371Z,100309.75
2022-10-31T22:30:51.106Z,100313.03
2022-10-31T22:35:55.380Z,100313.72
2022-10-31T22:40:58.753Z,100323.66
2022-10-31T22:46:03.583Z,100303.81
2022-10-31T22:51:07.818Z,100296.00
2022-10-31T22:56:12.016Z,100291.16
2022-10-31T23:01:16.066Z,100286.63
2022-10-31T23:06:21.430Z,100289.06
2022-10-31T23:11:25.079Z,100284.06
2022-10-31T23:16:27.736Z,100288.28
2022-10-31T23:21:54.391Z,100280.34
2022-10-31T23:27:10.419Z,100274.66
2022-10-31T23:32:16.507Z,100270.38
2022-10-31T23:37:21.345Z,100265.44
2022-10-31T23:42:24.478Z,100261.28
2022-10-31T23:47:27.173Z,100258.03
2022-10-31T23:52:31.170Z,100249.94
2022-10-31T23:57:34.013Z,100239.31
